Time;durP1;ratioP1;P1;durP2;ratioP2;P2;SDS_P1;SDS_P2;PMS_P1;PMS_P2;Temp;Humidity;BMP_temperature;BMP_pressure;BME280_temperature;BME280_humidity;BME280_pressure;Samples;Min_cycle;Max_cycle;Signal;HPM_P1;HPM_P2
2022/11/29 00:02:25;;;;;;;;;;;20.10;55.30;;;;;;6071027;29;19934;-45
2022/11/29 00:05:27;;;;;;;;;;;20.40;55.60;;;;;;6077571;29;19930;-45
2022/11/29 00:08:28;;;;;;;;;;;20.80;55.30;;;;;;6074505;29;19998;-47
2022/11/29 00:14:48;;;;;;;;;;;20.10;55.30;;;;;;6068033;28;19970;-47
2022/11/29 00:17:50;;;;;;;;;;;20.50;55.40;;;;;;6071318;29;19927;-46
2022/11/29 00:20:51;;;;;;;;;;;20.10;55.30;;;;;;6076054;29;19931;-45
2022/11/29 00:23:53;;;;;;;;;;;20.50;55.70;;;;;;6075748;29;20044;-44
2022/11/29 00:26:54;;;;;;;;;;;20.40;55.40;;;;;;6075375;29;19931;-45
2022/11/29 00:29:55;;;;;;;;;;;20.30;55.40;;;;;;6077204;29;19927;-44
2022/11/29 00:32:57;;;;;;;;;;;20.60;55.50;;;;;;6085921;28;19958;-46
2022/11/29 00:36:00;;;;;;;;;;;20.60;55.60;;;;;;6073233;29;19973;-46
2022/11/29 00:39:02;;;;;;;;;;;20.40;55.20;;;;;;6070587;29;20013;-46
2022/11/29 00:42:03;;;;;;;;;;;20.40;55.40;;;;;;6073041;29;19931;-45
2022/11/29 00:45:05;;;;;;;;;;;20.50;55.60;;;;;;6089605;28;19935;-44
2022/11/29 00:48:07;;;;;;;;;;;20.40;55.40;;;;;;6074058;29;22100;-45
2022/11/29 00:51:08;;;;;;;;;;;20.10;55.30;;;;;;6069485;29;19931;-44
2022/11/29 00:54:09;;;;;;;;;;;20.50;55.50;;;;;;6074663;29;19987;-48
2022/11/29 00:57:11;;;;;;;;;;;20.10;55.20;;;;;;6075898;29;20496;-45
2022/11/29 01:00:12;;;;;;;;;;;20.40;55.60;;;;;;6073252;29;20459;-43
2022/11/29 01:03:15;;;;;;;;;;;20.20;55.20;;;;;;6074312;29;19937;-46
2022/11/29 01:06:17;;;;;;;;;;;20.10;55.30;;;;;;6074647;29;19931;-43
2022/11/29 01:09:18;;;;;;;;;;;20.40;55.00;;;;;;6070821;29;19933;-46
2022/11/29 01:12:20;;;;;;;;;;;20.40;55.40;;;;;;6074572;29;19937;-44
2022/11/29 01:15:21;;;;;;;;;;;20.00;55.30;;;;;;6072855;29;19937;-46
2022/11/29 01:18:23;;;;;;;;;;;20.40;55.10;;;;;;6070872;29;19954;-44
2022/11/29 01:21:25;;;;;;;;;;;20.30;55.20;;;;;;6069293;29;19941;-46
2022/11/29 01:24:27;;;;;;;;;;;20.20;55.10;;;;;;6072443;29;19930;-49
2022/11/29 01:27:29;;;;;;;;;;;20.10;55.20;;;;;;6074825;29;19961;-46
2022/11/29 01:30:30;;;;;;;;;;;20.10;55.10;;;;;;6074331;29;19931;-47
2022/11/29 01:33:32;;;;;;;;;;;20.50;55.60;;;;;;6072696;29;19927;-44
2022/11/29 01:36:34;;;;;;;;;;;20.70;55.40;;;;;;6076403;29;19950;-44
2022/11/29 01:39:35;;;;;;;;;;;20.40;55.30;;;;;;6075715;29;19978;-46
2022/11/29 01:42:36;;;;;;;;;;;20.50;55.30;;;;;;6068579;29;21282;-45
2022/11/29 01:45:38;;;;;;;;;;;20.40;55.40;;;;;;6079097;29;20297;-45
2022/11/29 01:48:40;;;;;;;;;;;20.30;55.20;;;;;;6068834;29;20050;-45
2022/11/29 01:51:44;;;;;;;;;;;20.10;55.10;;;;;;6072307;29;19961;-46
2022/11/29 01:54:47;;;;;;;;;;;20.40;55.30;;;;;;6075696;29;19985;-45
2022/11/29 01:57:48;;;;;;;;;;;20.00;54.90;;;;;;6071759;29;19926;-50
2022/11/29 02:00:49;;;;;;;;;;;20.50;55.30;;;;;;6076624;29;20122;-45
2022/11/29 02:03:52;;;;;;;;;;;19.80;55.00;;;;;;6076505;29;19972;-49
2022/11/29 02:06:53;;;;;;;;;;;20.50;55.20;;;;;;6077680;29;20022;-44
2022/11/29 02:09:54;;;;;;;;;;;20.70;55.40;;;;;;6076310;29;21433;-48
2022/11/29 02:13:00;;;;;;;;;;;20.50;55.30;;;;;;6075138;29;19937;-45
2022/11/29 02:16:03;;;;;;;;;;;20.40;55.10;;;;;;6066095;29;20010;-48
2022/11/29 02:19:17;;;;;;;;;;;20.40;54.90;;;;;;6074161;29;19927;-45
2022/11/29 02:22:22;;;;;;;;;;;20.00;54.80;;;;;;6089337;28;19930;-45
2022/11/29 02:25:33;;;;;;;;;;;20.30;55.00;;;;;;6071251;29;20050;-45
2022/11/29 02:28:44;;;;;;;;;;;20.30;54.80;;;;;;6073828;29;19930;-45
2022/11/29 02:32:05;;;;;;;;;;;20.50;55.00;;;;;;6074837;29;19927;-45
2022/11/29 02:35:17;;;;;;;;;;;20.10;54.80;;;;;;6077249;29;19930;-47
2022/11/29 02:38:29;;;;;;;;;;;20.40;55.00;;;;;;6069142;28;20682;-44
2022/11/29 02:41:38;;;;;;;;;;;21.10;55.30;;;;;;6062718;29;20248;-45
2022/11/29 02:44:46;;;;;;;;;;;20.50;54.90;;;;;;6070123;29;19954;-45
2022/11/29 02:47:54;;;;;;;;;;;20.00;54.70;;;;;;6067451;29;19926;-45
2022/11/29 02:51:00;;;;;;;;;;;20.40;55.00;;;;;;6063918;29;19965;-46
2022/11/29 02:54:07;;;;;;;;;;;20.00;54.70;;;;;;6067241;29;20427;-46
2022/11/29 02:57:17;;;;;;;;;;;20.20;54.80;;;;;;6066523;28;21054;-47
2022/11/29 03:00:19;;;;;;;;;;;20.40;54.90;;;;;;6065665;29;19926;-43
2022/11/29 03:03:23;;;;;;;;;;;20.40;55.10;;;;;;6061195;29;20456;-46
2022/11/29 03:06:30;;;;;;;;;;;20.30;55.10;;;;;;6073424;29;20343;-44
2022/11/29 03:09:35;;;;;;;;;;;20.10;55.00;;;;;;6058511;29;20298;-45
2022/11/29 03:12:39;;;;;;;;;;;20.20;54.80;;;;;;6059646;29;20437;-45
2022/11/29 03:15:43;;;;;;;;;;;20.10;55.00;;;;;;6064009;29;19927;-44
2022/11/29 03:18:49;;;;;;;;;;;20.00;54.80;;;;;;6066694;29;19946;-45
2022/11/29 03:21:58;;;;;;;;;;;20.30;55.00;;;;;;6063575;29;19933;-44
2022/11/29 03:25:02;;;;;;;;;;;20.10;54.90;;;;;;6066806;29;19930;-44
2022/11/29 03:28:06;;;;;;;;;;;20.40;54.90;;;;;;6066663;29;19933;-45
2022/11/29 03:31:12;;;;;;;;;;;20.00;54.70;;;;;;6063856;29;20286;-45
2022/11/29 03:34:16;;;;;;;;;;;20.10;54.80;;;;;;6066870;29;20005;-45
2022/11/29 03:37:20;;;;;;;;;;;20.50;54.50;;;;;;6063412;29;21211;-46
2022/11/29 03:40:25;;;;;;;;;;;20.30;55.00;;;;;;6070660;29;20066;-44
2022/11/29 03:43:29;;;;;;;;;;;20.20;54.90;;;;;;6061769;29;20155;-45
2022/11/29 03:46:34;;;;;;;;;;;20.30;55.00;;;;;;6068302;29;20474;-44
2022/11/29 03:49:39;;;;;;;;;;;20.30;54.90;;;;;;6063772;29;19965;-45
2022/11/29 03:52:45;;;;;;;;;;;20.40;55.10;;;;;;6063233;29;20055;-46
2022/11/29 03:55:49;;;;;;;;;;;20.30;54.90;;;;;;6069303;29;20310;-44
2022/11/29 03:58:53;;;;;;;;;;;20.30;55.00;;;;;;6067956;29;20634;-47
2022/11/29 04:02:02;;;;;;;;;;;20.30;55.00;;;;;;6064347;29;20085;-47
2022/11/29 04:05:12;;;;;;;;;;;20.30;54.90;;;;;;6062583;29;20353;-45
2022/11/29 04:08:26;;;;;;;;;;;20.30;55.00;;;;;;6064366;29;19934;-45
2022/11/29 04:11:53;;;;;;;;;;;20.30;55.10;;;;;;6061392;29;20397;-46
2022/11/29 04:15:15;;;;;;;;;;;20.00;54.70;;;;;;6063261;29;20424;-46
2022/11/29 04:18:28;;;;;;;;;;;19.90;54.70;;;;;;6070575;29;20696;-48
2022/11/29 04:21:32;;;;;;;;;;;20.40;55.00;;;;;;6070019;29;20412;-46
2022/11/29 04:24:48;;;;;;;;;;;20.20;54.80;;;;;;6068961;29;20057;-48
2022/11/29 04:28:03;;;;;;;;;;;19.90;54.80;;;;;;6074967;29;19977;-45
2022/11/29 04:31:10;;;;;;;;;;;20.30;54.90;;;;;;6078212;29;19935;-47
2022/11/29 04:34:20;;;;;;;;;;;19.90;54.60;;;;;;6074814;29;20375;-49
2022/11/29 04:37:29;;;;;;;;;;;20.50;54.90;;;;;;6076583;29;20014;-48
2022/11/29 04:40:35;;;;;;;;;;;20.50;54.80;;;;;;6072888;29;20556;-47
2022/11/29 04:43:51;;;;;;;;;;;20.30;54.70;;;;;;6075653;29;20470;-47
2022/11/29 04:46:59;;;;;;;;;;;20.10;54.60;;;;;;6075396;29;19933;-45
2022/11/29 04:50:12;;;;;;;;;;;20.10;54.80;;;;;;6067344;29;19936;-47
2022/11/29 04:53:24;;;;;;;;;;;20.10;54.80;;;;;;6050956;29;19927;-46
2022/11/29 04:56:30;;;;;;;;;;;20.00;54.70;;;;;;6079067;29;20021;-49
2022/11/29 04:59:37;;;;;;;;;;;20.40;54.90;;;;;;6061105;29;20263;-46
2022/11/29 05:02:40;;;;;;;;;;;20.20;54.90;;;;;;6066237;29;19930;-47
2022/11/29 05:05:45;;;;;;;;;;;20.00;54.80;;;;;;6070204;29;19989;-51
2022/11/29 05:08:51;;;;;;;;;;;20.10;54.80;;;;;;6079607;29;20352;-51
2022/11/29 05:11:57;;;;;;;;;;;20.60;55.00;;;;;;6072384;29;19931;-46
2022/11/29 05:15:13;;;;;;;;;;;20.40;54.80;;;;;;6077885;29;19939;-46
2022/11/29 05:18:17;;;;;;;;;;;20.00;54.70;;;;;;6079141;29;20073;-46
2022/11/29 05:21:24;;;;;;;;;;;20.50;55.00;;;;;;6076852;29;19942;-49
2022/11/29 05:24:30;;;;;;;;;;;20.00;54.70;;;;;;6074888;29;20037;-47
2022/11/29 05:27:41;;;;;;;;;;;20.10;54.80;;;;;;6078579;29;20057;-51
2022/11/29 05:30:52;;;;;;;;;;;20.00;54.80;;;;;;6078905;29;19930;-46
2022/11/29 05:34:04;;;;;;;;;;;20.30;54.90;;;;;;6073190;29;19937;-46
2022/11/29 05:37:12;;;;;;;;;;;20.70;55.20;;;;;;6078345;29;19949;-46
2022/11/29 05:40:29;;;;;;;;;;;20.50;55.00;;;;;;6077016;28;20090;-47
2022/11/29 05:43:42;;;;;;;;;;;19.90;54.60;;;;;;6068068;29;19962;-48
2022/11/29 05:46:48;;;;;;;;;;;20.10;54.70;;;;;;6061856;29;20301;-48
2022/11/29 05:49:54;;;;;;;;;;;20.00;54.70;;;;;;6055751;29;19927;-47
2022/11/29 05:52:59;;;;;;;;;;;20.40;55.00;;;;;;5814633;29;21786;-48
2022/11/29 05:56:04;;;;;;;;;;;20.60;55.40;;;;;;5700417;29;19930;-47
2022/11/29 05:59:08;;;;;;;;;;;20.20;54.70;;;;;;6067659;29;19933;-47
2022/11/29 06:02:18;;;;;;;;;;;20.10;54.90;;;;;;6068452;29;22146;-47
2022/11/29 06:05:23;;;;;;;;;;;20.30;54.80;;;;;;6073250;29;19931;-46
2022/11/29 06:08:31;;;;;;;;;;;20.10;54.70;;;;;;6072306;29;20435;-48
2022/11/29 06:11:34;;;;;;;;;;;20.30;54.90;;;;;;6075270;29;19926;-47
2022/11/29 06:14:45;;;;;;;;;;;20.90;55.00;;;;;;6075277;29;20406;-48
2022/11/29 06:17:56;;;;;;;;;;;20.40;54.90;;;;;;6074726;28;19942;-47
2022/11/29 06:21:01;;;;;;;;;;;20.00;54.70;;;;;;6077051;29;20026;-48
2022/11/29 06:24:15;;;;;;;;;;;20.40;54.90;;;;;;6072100;29;20668;-49
2022/11/29 06:27:23;;;;;;;;;;;19.70;54.60;;;;;;6078733;29;20048;-47
2022/11/29 06:30:26;;;;;;;;;;;20.40;54.90;;;;;;6073132;29;20025;-50
2022/11/29 06:33:32;;;;;;;;;;;20.50;54.80;;;;;;6076027;29;20030;-48
2022/11/29 06:36:37;;;;;;;;;;;20.00;54.70;;;;;;6073872;29;19937;-47
2022/11/29 06:39:38;;;;;;;;;;;20.60;55.10;;;;;;6068821;29;20033;-47
2022/11/29 06:42:40;;;;;;;;;;;20.30;54.70;;;;;;6072080;29;19937;-47
2022/11/29 06:45:46;;;;;;;;;;;20.20;55.00;;;;;;6068804;29;20026;-47
2022/11/29 06:48:50;;;;;;;;;;;20.00;54.70;;;;;;6064236;29;19927;-46
2022/11/29 06:51:57;;;;;;;;;;;20.40;54.80;;;;;;6063078;28;19930;-47
2022/11/29 06:55:03;;;;;;;;;;;20.40;54.90;;;;;;6066436;29;19935;-50
2022/11/29 06:58:09;;;;;;;;;;;20.60;55.00;;;;;;6056403;29;20753;-46
2022/11/29 07:01:18;;;;;;;;;;;20.50;55.00;;;;;;6054340;29;19978;-46
2022/11/29 07:04:27;;;;;;;;;;;20.70;55.10;;;;;;6058683;29;19931;-51
2022/11/29 07:07:30;;;;;;;;;;;20.40;54.80;;;;;;6048760;29;20663;-45
2022/11/29 07:10:33;;;;;;;;;;;20.50;54.70;;;;;;6044942;29;19938;-46
2022/11/29 07:13:35;;;;;;;;;;;20.30;54.90;;;;;;6038600;29;22174;-47
2022/11/29 07:16:42;;;;;;;;;;;20.50;54.80;;;;;;6056722;29;19927;-48
2022/11/29 07:19:52;;;;;;;;;;;20.10;54.70;;;;;;6046145;29;19931;-49
2022/11/29 07:23:02;;;;;;;;;;;20.30;53.90;;;;;;6025130;29;20028;-48
2022/11/29 07:26:08;;;;;;;;;;;20.60;54.90;;;;;;6024173;29;19942;-50
2022/11/29 07:29:22;;;;;;;;;;;20.50;54.60;;;;;;6032042;29;19930;-45
2022/11/29 07:32:28;;;;;;;;;;;20.50;54.50;;;;;;6011454;29;19989;-48
2022/11/29 07:35:37;;;;;;;;;;;20.70;54.50;;;;;;6016246;29;19958;-47
2022/11/29 07:38:49;;;;;;;;;;;20.30;54.10;;;;;;6012811;28;19930;-49
2022/11/29 07:41:56;;;;;;;;;;;21.00;54.50;;;;;;5973659;29;19934;-49
2022/11/29 07:45:04;;;;;;;;;;;20.70;54.20;;;;;;6019883;28;19992;-47
2022/11/29 07:48:06;;;;;;;;;;;21.10;54.50;;;;;;5981979;29;19934;-46
2022/11/29 07:51:09;;;;;;;;;;;20.30;54.30;;;;;;5960301;29;19930;-47
2022/11/29 07:54:13;;;;;;;;;;;21.00;54.40;;;;;;5960843;29;23877;-47
2022/11/29 07:57:15;;;;;;;;;;;20.80;54.20;;;;;;5956406;29;19938;-47
2022/11/29 08:00:17;;;;;;;;;;;20.60;54.20;;;;;;5895653;29;19942;-46
2022/11/29 08:03:18;;;;;;;;;;;20.70;53.90;;;;;;5864934;29;19985;-47
2022/11/29 08:06:24;;;;;;;;;;;21.20;54.50;;;;;;5834860;29;19931;-46
2022/11/29 08:09:25;;;;;;;;;;;20.80;54.20;;;;;;5833692;28;21633;-50
2022/11/29 08:12:28;;;;;;;;;;;21.30;54.40;;;;;;5821716;28;19937;-46
2022/11/29 08:15:31;;;;;;;;;;;21.00;54.00;;;;;;5820044;28;19937;-49
2022/11/29 08:18:32;;;;;;;;;;;21.10;53.80;;;;;;5858128;29;19930;-45
2022/11/29 08:21:34;;;;;;;;;;;20.30;53.50;;;;;;5881004;29;19937;-51
2022/11/29 08:24:36;;;;;;;;;;;20.90;53.90;;;;;;5663501;29;20033;-48
2022/11/29 08:27:38;;;;;;;;;;;20.90;54.20;;;;;;5373430;29;20375;-46
2022/11/29 08:30:39;;;;;;;;;;;21.30;53.70;;;;;;5860941;29;21019;-50
2022/11/29 08:33:41;;;;;;;;;;;20.50;53.50;;;;;;5534712;29;21122;-49
2022/11/29 08:36:45;;;;;;;;;;;21.10;54.20;;;;;;5345759;29;20415;-47
2022/11/29 08:39:46;;;;;;;;;;;20.90;53.10;;;;;;5835495;28;24463;-48
2022/11/29 08:42:48;;;;;;;;;;;21.40;54.10;;;;;;5267269;29;19938;-48
2022/11/29 08:45:51;;;;;;;;;;;20.90;53.80;;;;;;5586348;29;20029;-51
2022/11/29 08:48:55;;;;;;;;;;;21.10;53.80;;;;;;5514678;29;19978;-48
2022/11/29 08:55:13;;;;;;;;;;;21.50;53.70;;;;;;5855656;28;20710;-46
2022/11/29 08:58:15;;;;;;;;;;;21.00;53.40;;;;;;5823003;29;19931;-48
2022/11/29 09:01:18;;;;;;;;;;;21.20;53.30;;;;;;5791091;29;23237;-46
2022/11/29 09:04:20;;;;;;;;;;;21.30;53.50;;;;;;5775148;29;20033;-47
2022/11/29 09:07:22;;;;;;;;;;;21.20;52.60;;;;;;5796691;29;19946;-46
2022/11/29 09:10:24;;;;;;;;;;;21.10;53.30;;;;;;5804042;28;32080;-48
2022/11/29 09:13:25;;;;;;;;;;;21.50;53.80;;;;;;5841334;29;19930;-47
2022/11/29 09:16:28;;;;;;;;;;;21.10;53.30;;;;;;5825860;28;19947;-47
2022/11/29 09:19:29;;;;;;;;;;;21.70;53.80;;;;;;5826100;29;19934;-48
2022/11/29 09:22:31;;;;;;;;;;;21.30;53.60;;;;;;5825172;29;19973;-47
2022/11/29 09:25:33;;;;;;;;;;;21.40;53.40;;;;;;5831640;29;19938;-48
2022/11/29 09:28:34;;;;;;;;;;;21.20;53.20;;;;;;5829625;29;20798;-47
2022/11/29 09:31:37;;;;;;;;;;;21.60;53.60;;;;;;5825373;29;19930;-45
2022/11/29 09:34:38;;;;;;;;;;;21.30;53.30;;;;;;5833160;29;19981;-46
2022/11/29 09:37:41;;;;;;;;;;;21.70;53.70;;;;;;5830913;29;20622;-49
2022/11/29 09:40:47;;;;;;;;;;;21.30;53.40;;;;;;5830754;29;19962;-46
2022/11/29 09:43:53;;;;;;;;;;;21.70;53.60;;;;;;5861533;29;19937;-49
2022/11/29 09:46:59;;;;;;;;;;;20.90;53.20;;;;;;5858933;28;20307;-45
2022/11/29 09:50:08;;;;;;;;;;;21.40;53.40;;;;;;5850674;29;19970;-47
2022/11/29 09:53:18;;;;;;;;;;;21.10;53.40;;;;;;5802816;29;21773;-47
2022/11/29 09:56:24;;;;;;;;;;;21.60;53.50;;;;;;5769194;29;19937;-47
2022/11/29 09:59:27;;;;;;;;;;;20.80;53.10;;;;;;5786123;28;19937;-47
2022/11/29 10:02:32;;;;;;;;;;;21.70;53.60;;;;;;5779355;29;20588;-48
2022/11/29 10:05:37;;;;;;;;;;;23.60;54.30;;;;;;5792354;28;20242;-46
2022/11/29 10:08:41;;;;;;;;;;;21.70;53.80;;;;;;5806823;29;20392;-47
2022/11/29 10:11:46;;;;;;;;;;;21.40;53.40;;;;;;5795762;28;19934;-47
2022/11/29 10:14:49;;;;;;;;;;;21.50;53.20;;;;;;5783990;28;20394;-49
2022/11/29 10:17:52;;;;;;;;;;;21.30;53.50;;;;;;5782965;29;19934;-48
2022/11/29 10:20:57;;;;;;;;;;;21.50;53.50;;;;;;5453953;29;22272;-47
2022/11/29 10:24:01;;;;;;;;;;;21.00;53.30;;;;;;5429343;28;20445;-50
2022/11/29 10:27:08;;;;;;;;;;;21.30;52.90;;;;;;5411448;29;21068;-48
2022/11/29 10:30:12;;;;;;;;;;;21.70;53.60;;;;;;5454394;28;22922;-49
2022/11/29 10:33:16;;;;;;;;;;;21.60;53.50;;;;;;5472452;29;23125;-47
2022/11/29 10:36:21;;;;;;;;;;;21.20;53.30;;;;;;5429691;29;23029;-48
2022/11/29 10:39:28;;;;;;;;;;;21.90;53.60;;;;;;5446148;29;26951;-47
2022/11/29 10:45:49;;;;;;;;;;;21.50;53.50;;;;;;5746067;28;21434;-45
2022/11/29 10:48:52;;;;;;;;;;;21.50;53.90;;;;;;5509268;29;20897;-46
2022/11/29 10:51:53;;;;;;;;;;;21.40;53.20;;;;;;5855127;29;19930;-48
2022/11/29 10:54:56;;;;;;;;;;;22.00;53.60;;;;;;5853665;29;19981;-49
2022/11/29 10:58:10;;;;;;;;;;;21.20;53.00;;;;;;5823254;29;20313;-47
2022/11/29 11:01:12;;;;;;;;;;;21.20;53.10;;;;;;5814393;29;19931;-48
2022/11/29 11:04:16;;;;;;;;;;;21.70;53.40;;;;;;5836666;29;19962;-46
2022/11/29 11:07:21;;;;;;;;;;;21.50;53.10;;;;;;5827926;29;19941;-50
2022/11/29 11:10:26;;;;;;;;;;;21.10;52.50;;;;;;5850113;29;20695;-46
2022/11/29 11:13:30;;;;;;;;;;;21.70;53.40;;;;;;5690763;29;21809;-45
2022/11/29 11:16:31;;;;;;;;;;;21.40;53.50;;;;;;5063356;29;30052;-47
2022/11/29 11:19:38;;;;;;;;;;;21.00;53.90;;;;;;3684863;29;21715;-46
2022/11/29 11:22:40;;;;;;;;;;;20.80;54.20;;;;;;3383183;29;22399;-46
2022/11/29 11:25:42;;;;;;;;;;;21.30;54.00;;;;;;5378014;29;19931;-47
2022/11/29 11:28:48;;;;;;;;;;;21.50;53.00;;;;;;5878396;29;19931;-49
2022/11/29 11:31:51;;;;;;;;;;;21.20;53.00;;;;;;5879754;29;24514;-51
2022/11/29 11:34:54;;;;;;;;;;;21.50;53.10;;;;;;5916559;29;20025;-47
2022/11/29 11:37:56;;;;;;;;;;;21.60;53.10;;;;;;5948915;29;20785;-51
2022/11/29 11:41:14;;;;;;;;;;;21.70;53.30;;;;;;5534034;29;19931;-48
2022/11/29 11:44:21;;;;;;;;;;;21.60;53.30;;;;;;5584266;29;20660;-53
2022/11/29 11:47:43;;;;;;;;;;;21.90;53.20;;;;;;5957211;28;20778;-50
2022/11/29 11:50:49;;;;;;;;;;;21.60;53.10;;;;;;5910608;29;19985;-48
2022/11/29 11:53:52;;;;;;;;;;;22.10;53.40;;;;;;5967957;28;20407;-46
2022/11/29 11:56:54;;;;;;;;;;;21.50;53.10;;;;;;5932272;29;20327;-48
2022/11/29 11:59:56;;;;;;;;;;;21.90;53.30;;;;;;5972314;29;20387;-50
2022/11/29 12:03:23;;;;;;;;;;;21.60;53.10;;;;;;5942849;29;19941;-47
2022/11/29 12:06:31;;;;;;;;;;;21.80;53.10;;;;;;5971299;29;19931;-51
2022/11/29 12:09:34;;;;;;;;;;;21.40;53.10;;;;;;5966331;29;19930;-49
2022/11/29 12:12:39;;;;;;;;;;;21.50;53.00;;;;;;5352556;29;19934;-47
2022/11/29 12:15:43;;;;;;;;;;;21.20;53.10;;;;;;5469122;29;22363;-50
2022/11/29 12:18:47;;;;;;;;;;;21.40;53.50;;;;;;5208684;29;19934;-50
2022/11/29 12:21:51;;;;;;;;;;;21.30;53.30;;;;;;5731820;29;19931;-51
2022/11/29 12:24:56;;;;;;;;;;;21.50;53.00;;;;;;5730142;29;19931;-49
2022/11/29 12:27:59;;;;;;;;;;;21.50;53.20;;;;;;5243285;29;24060;-52
2022/11/29 12:31:05;;;;;;;;;;;21.60;53.30;;;;;;5218977;29;19930;-47
2022/11/29 12:34:18;;;;;;;;;;;21.10;53.40;;;;;;5874580;29;20668;-51
2022/11/29 12:37:26;;;;;;;;;;;21.80;53.40;;;;;;5655925;29;21407;-47
2022/11/29 12:40:31;;;;;;;;;;;21.20;53.50;;;;;;5239744;28;21199;-52
2022/11/29 12:43:42;;;;;;;;;;;22.00;53.60;;;;;;5622907;29;19930;-50
2022/11/29 12:46:48;;;;;;;;;;;21.90;53.20;;;;;;5884511;29;19931;-48
2022/11/29 12:49:53;;;;;;;;;;;21.80;53.00;;;;;;5902991;28;20074;-46
2022/11/29 12:53:01;;;;;;;;;;;21.30;53.10;;;;;;5883579;29;19931;-48
2022/11/29 12:56:10;;;;;;;;;;;21.00;52.80;;;;;;5797387;28;19938;-47
2022/11/29 12:59:19;;;;;;;;;;;21.20;53.30;;;;;;5198143;29;21809;-50
2022/11/29 13:02:24;;;;;;;;;;;21.70;53.60;;;;;;5205844;29;22641;-51
2022/11/29 13:05:34;;;;;;;;;;;22.40;53.80;;;;;;5735236;29;23461;-51
2022/11/29 13:08:44;;;;;;;;;;;21.80;53.70;;;;;;5261089;29;19937;-47
2022/11/29 13:11:49;;;;;;;;;;;21.60;53.40;;;;;;5223264;29;23148;-50
2022/11/29 13:14:55;;;;;;;;;;;21.90;53.50;;;;;;5763401;28;20319;-51
2022/11/29 13:17:59;;;;;;;;;;;21.60;52.80;;;;;;5769301;29;19985;-59
2022/11/29 13:21:05;;;;;;;;;;;21.50;53.20;;;;;;5811319;29;19962;-51
2022/11/29 13:24:10;;;;;;;;;;;21.70;53.40;;;;;;5883736;29;20311;-48
2022/11/29 13:27:18;;;;;;;;;;;22.10;53.20;;;;;;6007798;29;20435;-48
2022/11/29 13:30:25;;;;;;;;;;;22.10;51.50;;;;;;6015907;28;21116;-49
2022/11/29 13:33:29;;;;;;;;;;;21.70;53.00;;;;;;5832612;28;19930;-49
2022/11/29 13:36:37;;;;;;;;;;;21.10;53.00;;;;;;5785364;29;26727;-48
2022/11/29 13:39:45;;;;;;;;;;;21.90;53.30;;;;;;5809633;29;19931;-51
2022/11/29 13:42:49;;;;;;;;;;;21.80;53.30;;;;;;5842108;28;20389;-49
2022/11/29 13:45:55;;;;;;;;;;;21.90;53.20;;;;;;5830911;29;19965;-47
2022/11/29 13:48:56;;;;;;;;;;;21.90;53.30;;;;;;5832351;29;19961;-48
2022/11/29 13:52:03;;;;;;;;;;;21.60;53.10;;;;;;5821764;29;21970;-48
2022/11/29 13:55:14;;;;;;;;;;;21.80;53.00;;;;;;5321073;29;20054;-49
2022/11/29 13:58:31;;;;;;;;;;;21.10;52.90;;;;;;5635614;29;25635;-47
2022/11/29 14:01:42;;;;;;;;;;;21.80;53.10;;;;;;5734482;28;19985;-50
2022/11/29 14:04:45;;;;;;;;;;;21.60;53.00;;;;;;5718773;28;19947;-52
2022/11/29 14:08:02;;;;;;;;;;;21.80;53.00;;;;;;5721331;29;19930;-52
2022/11/29 14:11:05;;;;;;;;;;;21.20;52.70;;;;;;5656065;29;19931;-47
2022/11/29 14:14:08;;;;;;;;;;;21.90;53.00;;;;;;5702832;29;19978;-48
2022/11/29 14:17:24;;;;;;;;;;;21.40;51.80;;;;;;5549854;29;23344;-48
2022/11/29 14:20:42;;;;;;;;;;;21.60;53.10;;;;;;5752090;29;19934;-50
2022/11/29 14:23:45;;;;;;;;;;;22.00;53.20;;;;;;5340286;28;20097;-52
2022/11/29 14:26:46;;;;;;;;;;;22.00;53.10;;;;;;5785158;29;24357;-49
2022/11/29 14:29:52;;;;;;;;;;;22.10;53.20;;;;;;5824026;29;19942;-48
2022/11/29 14:32:57;;;;;;;;;;;22.00;53.00;;;;;;5760905;28;20798;-52
2022/11/29 14:36:03;;;;;;;;;;;21.80;53.10;;;;;;5768317;28;19938;-49
2022/11/29 14:39:13;;;;;;;;;;;22.00;53.10;;;;;;5761420;29;20022;-50
2022/11/29 14:42:17;;;;;;;;;;;22.00;53.60;;;;;;5778697;29;19931;-47
2022/11/29 14:45:22;;;;;;;;;;;21.30;52.60;;;;;;5583129;29;20076;-48
2022/11/29 14:48:24;;;;;;;;;;;22.00;53.10;;;;;;5807709;29;20010;-51
2022/11/29 14:51:27;;;;;;;;;;;21.90;53.00;;;;;;5833419;29;19930;-47
2022/11/29 14:54:29;;;;;;;;;;;21.30;52.50;;;;;;5856526;29;20010;-48
2022/11/29 14:57:41;;;;;;;;;;;21.80;52.20;;;;;;5691417;29;19930;-49
2022/11/29 15:00:58;;;;;;;;;;;22.30;53.20;;;;;;5510269;29;19960;-50
2022/11/29 15:04:01;;;;;;;;;;;22.10;53.00;;;;;;5764484;29;23230;-49
2022/11/29 15:07:03;;;;;;;;;;;21.90;53.10;;;;;;5783146;29;19937;-51
2022/11/29 15:10:12;;;;;;;;;;;21.80;53.10;;;;;;5813118;29;21674;-52
2022/11/29 15:13:16;;;;;;;;;;;22.40;53.30;;;;;;5825292;28;19977;-49
2022/11/29 15:16:23;;;;;;;;;;;21.80;53.30;;;;;;5738592;29;24369;-51
2022/11/29 15:19:41;;;;;;;;;;;22.20;53.10;;;;;;5823998;29;20672;-47
2022/11/29 15:22:47;;;;;;;;;;;21.90;53.20;;;;;;5823236;29;19930;-48
2022/11/29 15:25:50;;;;;;;;;;;22.30;53.20;;;;;;5825141;28;19958;-49
2022/11/29 15:28:52;;;;;;;;;;;21.90;52.80;;;;;;5801995;29;19942;-48
2022/11/29 15:31:55;;;;;;;;;;;22.40;54.10;;;;;;5747535;29;20434;-49
2022/11/29 15:34:57;;;;;;;;;;;22.00;50.20;;;;;;5703590;28;20110;-49
2022/11/29 15:37:59;;;;;;;;;;;21.60;53.00;;;;;;5691291;29;19942;-47
2022/11/29 15:41:01;;;;;;;;;;;21.30;52.40;;;;;;5696820;28;20623;-50
2022/11/29 15:44:04;;;;;;;;;;;22.30;52.80;;;;;;5760456;29;19931;-47
2022/11/29 15:47:14;;;;;;;;;;;21.50;52.70;;;;;;5745367;28;19935;-48
2022/11/29 15:50:24;;;;;;;;;;;22.40;53.20;;;;;;5760135;28;19931;-48
2022/11/29 15:53:29;;;;;;;;;;;22.20;53.10;;;;;;5782229;29;19931;-48
2022/11/29 15:56:36;;;;;;;;;;;22.00;52.90;;;;;;5762375;28;23382;-47
2022/11/29 15:59:39;;;;;;;;;;;21.80;53.00;;;;;;5758099;29;20014;-49
2022/11/29 16:02:46;;;;;;;;;;;21.60;52.70;;;;;;5748806;29;19937;-50
2022/11/29 16:05:49;;;;;;;;;;;22.00;52.90;;;;;;5809376;29;20555;-51
2022/11/29 16:08:51;;;;;;;;;;;21.80;52.20;;;;;;5784662;29;20060;-49
2022/11/29 16:11:53;;;;;;;;;;;22.10;53.10;;;;;;5839345;28;20065;-48
2022/11/29 16:14:55;;;;;;;;;;;22.00;52.70;;;;;;5815977;29;19930;-50
2022/11/29 16:18:01;;;;;;;;;;;22.10;53.00;;;;;;5815529;29;19937;-49
2022/11/29 16:21:03;;;;;;;;;;;22.10;52.60;;;;;;5814379;29;19931;-47
2022/11/29 16:24:13;;;;;;;;;;;22.00;52.80;;;;;;5824049;29;20427;-48
2022/11/29 16:27:15;;;;;;;;;;;22.30;53.00;;;;;;5634321;29;20788;-50
2022/11/29 16:30:20;;;;;;;;;;;21.80;52.60;;;;;;5332602;28;20218;-47
2022/11/29 16:33:23;;;;;;;;;;;22.50;53.10;;;;;;5232949;29;22213;-49
2022/11/29 16:36:25;;;;;;;;;;;22.50;53.40;;;;;;5226433;29;19937;-48
2022/11/29 16:39:28;;;;;;;;;;;21.20;52.60;;;;;;5417730;28;19989;-47
2022/11/29 16:42:31;;;;;;;;;;;21.70;52.70;;;;;;5709489;29;19931;-49
2022/11/29 16:45:33;;;;;;;;;;;22.00;52.60;;;;;;5749424;28;20587;-51
2022/11/29 16:48:37;;;;;;;;;;;22.10;52.90;;;;;;5787561;28;19935;-49
2022/11/29 16:51:44;;;;;;;;;;;22.20;53.10;;;;;;5822527;29;20036;-48
2022/11/29 16:54:46;;;;;;;;;;;21.70;52.70;;;;;;5374287;28;22527;-48
2022/11/29 16:57:48;;;;;;;;;;;22.00;53.10;;;;;;5456763;29;20428;-48
2022/11/29 17:00:50;;;;;;;;;;;21.50;52.40;;;;;;5848557;29;20038;-47
2022/11/29 17:03:51;;;;;;;;;;;22.20;52.80;;;;;;5867976;29;20007;-47
2022/11/29 17:06:53;;;;;;;;;;;22.00;52.60;;;;;;5892664;28;20647;-48
2022/11/29 17:09:55;;;;;;;;;;;22.60;53.30;;;;;;5877770;29;20415;-47
2022/11/29 17:12:56;;;;;;;;;;;22.00;52.60;;;;;;5921147;29;19958;-50
2022/11/29 17:15:58;;;;;;;;;;;22.50;53.00;;;;;;5875932;29;19941;-48
2022/11/29 17:18:59;;;;;;;;;;;22.10;52.80;;;;;;5922557;29;19931;-52
2022/11/29 17:22:01;;;;;;;;;;;22.40;53.00;;;;;;5944058;28;20655;-49
2022/11/29 17:25:02;;;;;;;;;;;22.10;52.80;;;;;;5949271;29;19930;-47
2022/11/29 17:28:04;;;;;;;;;;;22.40;52.90;;;;;;5961406;28;19931;-50
2022/11/29 17:31:08;;;;;;;;;;;22.00;52.70;;;;;;5972346;29;19930;-51
2022/11/29 17:34:09;;;;;;;;;;;22.40;52.90;;;;;;5977533;29;20041;-46
2022/11/29 17:37:11;;;;;;;;;;;22.10;52.80;;;;;;5981940;29;19931;-50
2022/11/29 17:40:14;;;;;;;;;;;22.20;53.00;;;;;;5967862;29;19986;-47
2022/11/29 17:43:15;;;;;;;;;;;21.90;52.70;;;;;;5998256;29;19930;-49
2022/11/29 17:46:18;;;;;;;;;;;22.00;52.80;;;;;;5995740;29;20802;-47
2022/11/29 17:49:19;;;;;;;;;;;21.90;52.80;;;;;;6005669;29;19937;-46
2022/11/29 17:52:21;;;;;;;;;;;22.40;53.20;;;;;;5998429;29;20365;-48
2022/11/29 17:55:22;;;;;;;;;;;21.90;52.70;;;;;;6002108;29;20121;-46
2022/11/29 17:58:31;;;;;;;;;;;22.40;53.30;;;;;;6011515;29;19942;-50
2022/11/29 18:01:34;;;;;;;;;;;22.00;53.00;;;;;;6004364;29;19965;-47
2022/11/29 18:04:36;;;;;;;;;;;22.00;53.00;;;;;;6013509;29;19930;-47
2022/11/29 18:07:56;;;;;;;;;;;21.80;52.90;;;;;;6016764;29;20011;-48